createdAt,value
2022-10-25T00:01:17.898Z,14.27
2022-10-25T00:03:47.125Z,15.30
2022-10-25T00:06:16.342Z,14.38
2022-10-25T00:08:43.562Z,14.65
2022-10-25T00:11:20.744Z,14.70
2022-10-25T00:13:56.654Z,15.13
2022-10-25T00:16:27.752Z,14.35
2022-10-25T00:18:54.991Z,14.93
2022-10-25T00:21:22.014Z,15.77
2022-10-25T00:23:49.266Z,16.30
2022-10-25T00:26:16.446Z,13.95
2022-10-25T00:28:43.687Z,14.02
2022-10-25T00:31:16.937Z,15.50
2022-10-25T00:33:45.264Z,14.73
2022-10-25T00:36:18.994Z,13.65
2022-10-25T00:38:46.401Z,14.70
2022-10-25T00:41:15.814Z,13.90
2022-10-25T00:43:55.675Z,13.68
2022-10-25T00:46:29.334Z,13.15
2022-10-25T00:49:02.439Z,13.98
2022-10-25T00:51:35.164Z,13.85
2022-10-25T00:54:02.084Z,13.82
2022-10-25T00:56:34.098Z,12.75
2022-10-25T00:59:09.222Z,13.70
2022-10-25T01:01:37.520Z,13.10
2022-10-25T01:04:08.287Z,12.98
2022-10-25T01:06:38.799Z,13.10
2022-10-25T01:09:07.255Z,13.32
2022-10-25T01:11:36.254Z,12.15
2022-10-25T01:14:03.854Z,14.13
2022-10-25T01:16:48.934Z,12.23
2022-10-25T01:19:24.744Z,12.13
2022-10-25T01:21:57.746Z,12.53
2022-10-25T01:25:07.606Z,12.32
2022-10-25T01:28:05.407Z,11.48
2022-10-25T01:31:00.687Z,12.13
2022-10-25T01:33:40.394Z,10.27
2022-10-25T01:38:47.964Z,11.35
2022-10-25T01:41:24.962Z,11.55
2022-10-25T01:43:51.762Z,11.05
2022-10-25T01:46:18.543Z,10.30
2022-10-25T01:48:52.223Z,11.25
2022-10-25T01:51:19.072Z,13.00
2022-10-25T01:53:51.906Z,10.50
2022-10-25T01:56:24.672Z,11.55
2022-10-25T01:59:29.398Z,11.05
2022-10-25T02:01:59.043Z,10.55
2022-10-25T02:04:37.765Z,9.80
2022-10-25T02:07:53.970Z,10.52
2022-10-25T02:10:29.613Z,9.73
2022-10-25T02:13:03.183Z,9.77
2022-10-25T02:15:35.862Z,10.02
2022-10-25T02:18:07.238Z,10.32
2022-10-25T02:20:36.046Z,10.63
2022-10-25T02:23:06.344Z,9.32
2022-10-25T02:25:35.253Z,9.77
2022-10-25T02:28:09.143Z,9.57
2022-10-25T02:30:38.262Z,9.57
2022-10-25T02:33:05.569Z,9.70
2022-10-25T02:35:34.305Z,9.70
2022-10-25T02:38:01.871Z,9.85
2022-10-25T02:40:29.208Z,10.55
2022-10-25T02:42:56.137Z,10.23
2022-10-25T02:45:23.487Z,9.13
2022-10-25T02:47:50.443Z,10.13
2022-10-25T02:50:17.512Z,9.48
2022-10-25T02:52:44.707Z,10.70
2022-10-25T02:55:11.832Z,9.65
2022-10-25T02:57:38.882Z,10.23
2022-10-25T03:00:07.866Z,10.25
2022-10-25T03:02:34.735Z,9.82
2022-10-25T03:05:01.600Z,10.20
2022-10-25T03:07:28.577Z,10.23
2022-10-25T03:09:55.463Z,9.70
2022-10-25T03:12:22.505Z,10.65
2022-10-25T03:14:49.790Z,10.48
2022-10-25T03:17:16.599Z,10.52
2022-10-25T03:19:43.571Z,10.45
2022-10-25T03:22:10.503Z,10.13
2022-10-25T03:24:37.322Z,10.75
2022-10-25T03:27:04.162Z,10.80
2022-10-25T03:29:31.142Z,10.68
2022-10-25T03:31:58.052Z,11.15
2022-10-25T03:34:27.363Z,11.77
2022-10-25T03:36:54.201Z,10.07
2022-10-25T03:39:21.122Z,10.98
2022-10-25T03:41:48.022Z,11.50
2022-10-25T03:44:15.032Z,10.75
2022-10-25T03:46:43.416Z,10.73
2022-10-25T03:49:10.381Z,11.25
2022-10-25T03:51:37.253Z,10.88
2022-10-25T03:54:05.362Z,9.82
2022-10-25T03:56:32.211Z,10.90
2022-10-25T03:58:59.341Z,11.45
2022-10-25T04:01:26.686Z,10.32
2022-10-25T04:03:53.504Z,11.02
2022-10-25T04:06:20.553Z,11.10
2022-10-25T04:08:47.343Z,14.18
2022-10-25T04:11:14.223Z,13.52
2022-10-25T04:13:41.087Z,12.55
2022-10-25T04:16:09.061Z,12.10
2022-10-25T04:18:36.492Z,12.77
2022-10-25T04:21:03.432Z,10.68
2022-10-25T04:23:31.512Z,11.20
2022-10-25T04:25:58.630Z,11.75
2022-10-25T04:28:25.840Z,11.88
2022-10-25T04:30:52.719Z,11.80
2022-10-25T04:33:19.572Z,12.18
2022-10-25T04:35:57.174Z,12.10
2022-10-25T04:38:24.530Z,11.75
2022-10-25T04:40:58.941Z,11.77
2022-10-25T04:43:27.762Z,11.77
2022-10-25T04:45:55.157Z,11.65
2022-10-25T04:48:24.402Z,11.55
2022-10-25T04:50:51.367Z,11.68
2022-10-25T04:53:18.255Z,12.43
2022-10-25T04:55:45.188Z,11.65
2022-10-25T04:58:11.951Z,12.85
2022-10-25T05:00:38.822Z,12.23
2022-10-25T05:03:09.529Z,11.80
2022-10-25T05:05:39.843Z,12.00
2022-10-25T05:08:06.667Z,12.18
2022-10-25T05:10:33.475Z,11.23
2022-10-25T05:13:18.795Z,12.15
2022-10-25T05:15:45.661Z,12.45
2022-10-25T05:18:12.494Z,11.10
2022-10-25T05:20:39.490Z,12.23
2022-10-25T05:23:06.289Z,11.73
2022-10-25T05:25:33.185Z,12.10
2022-10-25T05:28:00.193Z,12.50
2022-10-25T05:30:27.090Z,13.80
2022-10-25T05:32:54.322Z,13.25
2022-10-25T05:35:24.434Z,12.55
2022-10-25T05:37:52.455Z,11.20
2022-10-25T05:40:19.349Z,13.60
2022-10-25T05:42:48.799Z,12.30
2022-10-25T05:45:16.181Z,11.90
2022-10-25T05:47:43.104Z,12.23
2022-10-25T05:50:10.143Z,12.00
2022-10-25T05:52:37.125Z,13.25
2022-10-25T05:55:04.109Z,11.98
2022-10-25T05:57:31.267Z,11.48
2022-10-25T05:59:58.044Z,11.85
2022-10-25T06:02:25.075Z,11.80
2022-10-25T06:05:10.949Z,11.57
2022-10-25T06:07:37.861Z,12.65
2022-10-25T06:10:09.573Z,12.30
2022-10-25T06:12:37.628Z,13.13
2022-10-25T06:15:23.285Z,11.77
2022-10-25T06:17:50.140Z,12.90
2022-10-25T06:20:17.005Z,13.15
2022-10-25T06:22:44.125Z,12.32
2022-10-25T06:25:11.217Z,12.32
2022-10-25T06:27:38.074Z,12.32
2022-10-25T06:30:05.631Z,13.07
2022-10-25T06:32:32.519Z,15.02
2022-10-25T06:34:59.450Z,15.13
2022-10-25T06:37:26.318Z,16.38
2022-10-25T06:39:53.194Z,17.45
2022-10-25T06:42:20.074Z,16.63
2022-10-25T06:44:46.966Z,17.17
2022-10-25T06:47:18.094Z,15.55
2022-10-25T06:49:46.094Z,14.43
2022-10-25T06:52:13.354Z,14.80
2022-10-25T06:54:40.275Z,12.40
2022-10-25T06:57:07.215Z,13.75
2022-10-25T06:59:34.066Z,15.05
2022-10-25T07:02:01.054Z,27.75
2022-10-25T07:04:28.108Z,28.95
2022-10-25T07:06:55.559Z,25.38
2022-10-25T07:09:22.585Z,25.83
2022-10-25T07:11:50.787Z,27.95
2022-10-25T07:14:17.669Z,25.50
2022-10-25T07:16:44.785Z,21.98
2022-10-25T07:19:11.644Z,17.40
2022-10-25T07:21:38.552Z,16.20
2022-10-25T07:24:05.755Z,15.32
2022-10-25T07:26:35.958Z,11.98
2022-10-25T07:29:04.538Z,11.95
2022-10-25T07:31:34.096Z,12.43
2022-10-25T07:34:02.375Z,12.70
2022-10-25T07:36:30.614Z,15.25
2022-10-25T07:38:58.674Z,12.27
2022-10-25T07:41:26.902Z,13.93
2022-10-25T07:43:53.829Z,13.15
2022-10-25T07:46:20.854Z,11.07
2022-10-25T07:48:47.784Z,12.57
2022-10-25T07:51:17.404Z,11.38
2022-10-25T07:54:03.098Z,11.57
2022-10-25T07:56:30.483Z,11.40
2022-10-25T07:58:58.033Z,11.63
2022-10-25T08:01:28.219Z,12.85
2022-10-25T08:03:55.874Z,12.05
2022-10-25T08:06:24.116Z,12.82
2022-10-25T08:08:51.025Z,13.93
2022-10-25T08:11:18.034Z,15.98
2022-10-25T08:13:44.965Z,18.02
2022-10-25T08:16:12.044Z,17.80
2022-10-25T08:18:38.896Z,20.52
2022-10-25T08:21:06.417Z,17.95
2022-10-25T08:23:33.517Z,16.63
2022-10-25T08:26:01.655Z,14.32
2022-10-25T08:28:30.944Z,15.30
2022-10-25T08:30:58.393Z,14.20
2022-10-25T08:33:25.285Z,10.50
2022-10-25T08:35:52.203Z,11.73
2022-10-25T08:38:19.092Z,12.23
2022-10-25T08:41:17.465Z,11.30
2022-10-25T08:43:56.227Z,9.82
2022-10-25T08:46:33.278Z,9.27
2022-10-25T08:49:27.355Z,10.15
2022-10-25T08:51:56.612Z,9.38
2022-10-25T08:54:37.744Z,9.10
2022-10-25T08:57:26.464Z,10.30
2022-10-25T09:00:10.713Z,11.15
2022-10-25T09:02:47.116Z,10.00
2022-10-25T09:05:25.444Z,8.60
2022-10-25T09:08:32.838Z,8.77
2022-10-25T09:11:26.087Z,9.27
2022-10-25T09:14:10.613Z,8.48
2022-10-25T09:16:51.722Z,9.05
2022-10-25T09:19:44.625Z,8.55
2022-10-25T09:22:31.701Z,8.73
2022-10-25T09:25:10.748Z,8.50
2022-10-25T09:27:43.463Z,8.18
2022-10-25T09:30:12.564Z,8.75
2022-10-25T09:33:06.077Z,8.02
2022-10-25T09:35:53.729Z,8.88
2022-10-25T09:38:39.076Z,8.60
2022-10-25T09:41:12.968Z,7.95
2022-10-25T09:43:45.686Z,8.15
2022-10-25T09:46:18.456Z,8.38
2022-10-25T09:48:53.139Z,8.18
2022-10-25T09:51:55.240Z,7.80
2022-10-25T09:54:31.842Z,7.38
2022-10-25T09:56:59.265Z,6.18
2022-10-25T09:59:28.254Z,6.13
2022-10-25T10:01:55.382Z,7.35
2022-10-25T10:04:40.062Z,6.57
2022-10-25T10:07:22.912Z,6.90
2022-10-25T10:09:51.960Z,6.20
2022-10-25T10:12:48.336Z,7.53
2022-10-25T10:15:21.453Z,7.65
2022-10-25T10:18:01.042Z,7.70
2022-10-25T10:20:27.986Z,6.75
2022-10-25T10:22:55.010Z,7.13
2022-10-25T10:25:26.395Z,7.75
2022-10-25T10:27:56.755Z,6.65
2022-10-25T10:30:29.766Z,8.43
2022-10-25T10:33:01.817Z,7.72
2022-10-25T10:35:36.988Z,7.78
2022-10-25T10:38:30.078Z,8.07
2022-10-25T10:41:26.936Z,7.55
2022-10-25T10:44:14.167Z,8.18
2022-10-25T10:46:46.599Z,8.15
2022-10-25T10:49:15.212Z,7.97
2022-10-25T10:51:45.429Z,8.55
2022-10-25T10:54:26.571Z,7.88
2022-10-25T10:57:01.920Z,8.18
2022-10-25T10:59:31.629Z,8.38
2022-10-25T11:02:17.839Z,7.65
2022-10-25T11:04:53.574Z,8.00
2022-10-25T11:07:42.448Z,8.13
2022-10-25T11:10:15.368Z,7.43
2022-10-25T11:12:43.396Z,7.28
2022-10-25T11:15:14.006Z,7.25
2022-10-25T11:17:54.083Z,8.02
2022-10-25T11:20:48.982Z,8.02
2022-10-25T11:23:39.587Z,7.93
2022-10-25T11:26:35.806Z,7.50
2022-10-25T11:29:23.366Z,6.95
2022-10-25T11:32:01.491Z,6.57
2022-10-25T11:34:43.427Z,7.78
2022-10-25T11:37:15.858Z,7.47
2022-10-25T11:40:01.952Z,6.57
2022-10-25T11:42:50.705Z,6.30
2022-10-25T11:45:32.530Z,6.93
2022-10-25T11:48:19.807Z,6.72
2022-10-25T11:51:43.877Z,6.85
2022-10-25T11:54:34.496Z,7.10
2022-10-25T11:57:32.565Z,7.10
2022-10-25T12:00:07.259Z,7.30
2022-10-25T12:02:43.786Z,7.78
2022-10-25T12:05:25.973Z,7.75
2022-10-25T12:08:37.396Z,7.90
2022-10-25T12:11:09.003Z,8.13
2022-10-25T12:13:42.716Z,8.40
2022-10-25T12:16:17.023Z,7.95
2022-10-25T12:19:06.646Z,8.00
2022-10-25T12:21:43.630Z,7.88
2022-10-25T12:24:23.677Z,8.20
2022-10-25T12:26:54.003Z,7.43
2022-10-25T12:29:26.628Z,8.50
2022-10-25T12:31:58.054Z,7.28
2022-10-25T12:34:43.366Z,7.40
2022-10-25T12:37:39.188Z,7.57
2022-10-25T12:40:14.949Z,8.57
2022-10-25T12:42:49.890Z,7.07
2022-10-25T12:45:48.806Z,6.78
2022-10-25T12:48:46.276Z,7.68
2022-10-25T12:54:14.668Z,6.65
2022-10-25T12:57:02.580Z,5.38
2022-10-25T12:59:54.278Z,4.88
2022-10-25T13:02:58.251Z,5.18
2022-10-25T13:06:02.047Z,4.47
2022-10-25T13:08:29.835Z,4.38
2022-10-25T13:11:00.215Z,4.57
2022-10-25T13:13:31.142Z,4.22
2022-10-25T13:16:01.263Z,4.82
2022-10-25T13:18:40.328Z,5.63
2022-10-25T13:21:10.333Z,6.18
2022-10-25T13:23:43.232Z,5.65
2022-10-25T13:26:32.171Z,5.63
2022-10-25T13:29:23.243Z,4.60
2022-10-25T13:31:58.902Z,5.45
2022-10-25T13:34:34.569Z,5.23
2022-10-25T13:37:03.990Z,4.30
2022-10-25T13:39:43.398Z,3.88
2022-10-25T13:42:16.267Z,3.97
2022-10-25T13:44:59.727Z,4.00
2022-10-25T13:47:47.205Z,3.95
2022-10-25T13:50:31.024Z,4.75
2022-10-25T13:53:14.805Z,4.97
2022-10-25T13:55:48.079Z,5.55
2022-10-25T13:58:32.109Z,6.43
2022-10-25T14:01:17.714Z,5.40
2022-10-25T14:04:02.809Z,5.10
2022-10-25T14:06:52.264Z,4.47
2022-10-25T14:09:52.204Z,4.53
2022-10-25T14:12:21.668Z,5.60
2022-10-25T14:14:48.366Z,5.85
2022-10-25T14:17:31.595Z,5.47
2022-10-25T14:20:02.997Z,6.25
2022-10-25T14:22:38.486Z,6.28
2022-10-25T14:25:15.133Z,5.63
2022-10-25T14:27:42.007Z,6.38
2022-10-25T14:30:27.490Z,6.30
2022-10-25T14:33:03.953Z,6.05
2022-10-25T14:38:16.345Z,6.38
2022-10-25T14:40:51.554Z,6.13
2022-10-25T14:43:38.334Z,6.65
2022-10-25T14:46:14.300Z,6.70
2022-10-25T14:48:45.422Z,7.32
2022-10-25T14:51:21.734Z,6.75
2022-10-25T14:53:56.000Z,5.93
2022-10-25T14:56:30.568Z,6.18
2022-10-25T14:58:57.957Z,6.03
2022-10-25T15:01:25.397Z,6.65
2022-10-25T15:03:54.857Z,6.80
2022-10-25T15:06:25.287Z,7.13
2022-10-25T15:09:16.142Z,7.60
2022-10-25T15:12:04.387Z,7.30
2022-10-25T15:14:31.651Z,6.90
2022-10-25T15:17:03.071Z,7.22
2022-10-25T15:19:29.923Z,8.32
2022-10-25T15:22:07.743Z,6.90
2022-10-25T15:24:44.819Z,7.00
2022-10-25T15:27:35.464Z,7.15
2022-10-25T15:30:05.000Z,6.93
2022-10-25T15:32:33.576Z,6.55
2022-10-25T15:35:01.953Z,6.57
2022-10-25T15:37:30.134Z,7.10
2022-10-25T15:39:57.647Z,7.93
2022-10-25T15:42:26.181Z,7.03
2022-10-25T15:44:53.066Z,6.93
2022-10-25T15:47:34.893Z,7.57
2022-10-25T15:50:03.880Z,8.27
2022-10-25T15:52:30.857Z,7.35
2022-10-25T15:54:57.665Z,7.28
2022-10-25T15:57:27.496Z,8.18
2022-10-25T15:59:54.331Z,8.00
2022-10-25T16:02:27.210Z,7.35
2022-10-25T16:04:54.248Z,8.85
2022-10-25T16:07:21.046Z,8.30
2022-10-25T16:09:47.926Z,8.00
2022-10-25T16:12:21.694Z,8.20
2022-10-25T16:14:50.674Z,7.53
2022-10-25T16:17:17.521Z,7.45
2022-10-25T16:19:44.371Z,7.75
2022-10-25T16:22:11.144Z,8.18
2022-10-25T16:24:38.282Z,7.18
2022-10-25T16:27:05.178Z,7.97
2022-10-25T16:29:32.104Z,9.23
2022-10-25T16:31:59.101Z,9.35
2022-10-25T16:34:25.967Z,9.68
2022-10-25T16:36:52.954Z,10.27
2022-10-25T16:39:19.912Z,10.10
2022-10-25T16:41:47.841Z,9.38
2022-10-25T16:44:19.453Z,10.23
2022-10-25T16:46:46.752Z,10.73
2022-10-25T16:49:13.815Z,10.80
2022-10-25T16:51:41.072Z,10.77
2022-10-25T16:54:08.226Z,12.10
2022-10-25T16:56:35.891Z,11.55
2022-10-25T16:59:03.393Z,12.00
2022-10-25T17:01:40.019Z,11.00
2022-10-25T17:04:10.794Z,10.90
2022-10-25T17:06:42.008Z,11.82
2022-10-25T17:09:09.614Z,11.23
2022-10-25T17:11:37.686Z,12.35
2022-10-25T17:14:04.722Z,11.18
2022-10-25T17:16:31.776Z,11.38
2022-10-25T17:18:58.739Z,11.55
2022-10-25T17:21:25.582Z,11.23
2022-10-25T17:23:52.355Z,11.10
2022-10-25T17:26:19.239Z,10.20
2022-10-25T17:28:46.076Z,10.85
2022-10-25T17:31:14.663Z,10.95
2022-10-25T17:33:42.694Z,10.63
2022-10-25T17:36:12.189Z,11.35
2022-10-25T17:38:39.052Z,11.38
2022-10-25T17:41:06.431Z,11.57
2022-10-25T17:43:35.963Z,12.13
2022-10-25T17:46:08.274Z,11.93
2022-10-25T17:48:35.750Z,12.05
2022-10-25T17:51:04.653Z,18.00
2022-10-25T17:53:31.632Z,18.77
2022-10-25T17:55:58.515Z,14.25
2022-10-25T17:58:26.061Z,12.90
2022-10-25T18:00:54.607Z,13.02
2022-10-25T18:03:21.614Z,12.55
2022-10-25T18:05:48.624Z,12.25
2022-10-25T18:08:15.921Z,13.15
2022-10-25T18:10:42.942Z,14.52
2022-10-25T18:13:09.714Z,15.63
2022-10-25T18:15:38.393Z,15.15
2022-10-25T18:18:05.383Z,14.30
2022-10-25T18:20:32.448Z,15.02
2022-10-25T18:22:59.231Z,13.68
2022-10-25T18:25:26.073Z,17.55
2022-10-25T18:27:52.831Z,14.32
2022-10-25T18:30:19.635Z,12.95
2022-10-25T18:32:46.518Z,15.80
2022-10-25T18:35:13.343Z,12.73
2022-10-25T18:37:40.322Z,12.85
2022-10-25T18:40:08.583Z,12.75
2022-10-25T18:42:36.090Z,13.35
2022-10-25T18:45:04.252Z,13.85
2022-10-25T18:47:31.165Z,12.90
2022-10-25T18:49:58.015Z,13.25
2022-10-25T18:52:24.910Z,13.48
2022-10-25T18:54:55.284Z,12.60
2022-10-25T18:57:22.148Z,13.27
2022-10-25T18:59:48.987Z,27.38
2022-10-25T19:02:16.053Z,19.90
2022-10-25T19:04:42.998Z,31.98
2022-10-25T19:07:09.761Z,34.17
2022-10-25T19:09:36.548Z,33.95
2022-10-25T19:12:03.392Z,34.53
2022-10-25T19:14:30.156Z,33.78
2022-10-25T19:16:57.004Z,34.28
2022-10-25T19:19:23.755Z,32.03
2022-10-25T19:21:50.647Z,28.00
2022-10-25T19:24:17.691Z,27.08
2022-10-25T19:26:45.077Z,26.45
2022-10-25T19:29:11.937Z,27.42
2022-10-25T19:31:38.820Z,24.08
2022-10-25T19:34:05.662Z,24.00
2022-10-25T19:36:32.562Z,21.20
2022-10-25T19:39:00.001Z,20.23
2022-10-25T19:41:26.848Z,19.70
2022-10-25T19:43:53.875Z,22.27
2022-10-25T19:46:21.654Z,22.30
2022-10-25T19:48:48.678Z,24.45
2022-10-25T19:51:18.711Z,22.10
2022-10-25T19:53:46.065Z,24.45
2022-10-25T19:56:18.333Z,26.60
2022-10-25T19:58:45.610Z,28.23
2022-10-25T20:01:16.045Z,27.17
2022-10-25T20:03:44.573Z,29.17
2022-10-25T20:06:18.869Z,29.05
2022-10-25T20:08:48.715Z,30.77
2022-10-25T20:11:17.127Z,31.48
2022-10-25T20:13:44.376Z,35.83
2022-10-25T20:16:13.950Z,34.33
2022-10-25T20:18:42.158Z,36.28
2022-10-25T20:21:17.916Z,32.47
2022-10-25T20:23:49.901Z,33.17
2022-10-25T20:26:22.734Z,34.63
2022-10-25T20:31:26.319Z,35.65
2022-10-25T20:33:54.445Z,34.58
2022-10-25T20:36:21.464Z,36.70
2022-10-25T20:38:48.479Z,31.80
2022-10-25T20:41:18.543Z,31.40
2022-10-25T20:43:48.097Z,23.90
2022-10-25T20:46:15.997Z,19.63
2022-10-25T20:48:43.154Z,19.83
2022-10-25T20:51:11.537Z,18.65
2022-10-25T20:53:42.991Z,19.20
2022-10-25T20:56:10.153Z,19.08
2022-10-25T20:58:36.973Z,23.27
2022-10-25T21:01:04.299Z,24.80
2022-10-25T21:03:32.038Z,20.05
2022-10-25T21:06:00.952Z,19.50
2022-10-25T21:08:27.954Z,18.50
2022-10-25T21:10:56.432Z,19.35
2022-10-25T21:13:24.531Z,18.67
2022-10-25T21:15:52.950Z,16.20
2022-10-25T21:18:20.284Z,16.75
2022-10-25T21:20:48.865Z,18.95
2022-10-25T21:23:15.696Z,18.48
2022-10-25T21:25:42.516Z,18.80
2022-10-25T21:28:09.342Z,18.33
2022-10-25T21:30:36.290Z,20.23
2022-10-25T21:33:04.462Z,19.98
2022-10-25T21:35:32.735Z,20.58
2022-10-25T21:37:59.683Z,24.08
2022-10-25T21:40:27.462Z,24.80
2022-10-25T21:42:57.852Z,26.05
2022-10-25T21:45:24.763Z,25.98
2022-10-25T21:47:51.817Z,24.35
2022-10-25T21:50:18.778Z,23.50
2022-10-25T21:52:45.712Z,22.40
2022-10-25T21:55:12.513Z,23.67
2022-10-25T21:57:39.343Z,23.67
2022-10-25T22:00:06.770Z,24.30
2022-10-25T22:02:33.815Z,25.08
2022-10-25T22:05:00.910Z,23.50
2022-10-25T22:07:27.764Z,24.30
2022-10-25T22:09:54.572Z,23.88
2022-10-25T22:12:21.337Z,25.05
2022-10-25T22:14:48.854Z,23.52
2022-10-25T22:17:15.691Z,23.80
2022-10-25T22:19:42.484Z,22.33
2022-10-25T22:22:09.356Z,22.33
2022-10-25T22:24:36.204Z,22.10
2022-10-25T22:27:03.043Z,23.02
2022-10-25T22:29:29.942Z,23.20
2022-10-25T22:33:35.606Z,19.77
2022-10-25T22:36:10.077Z,17.77
2022-10-25T22:38:37.646Z,16.98
2022-10-25T22:41:07.252Z,15.02
2022-10-25T22:43:36.156Z,13.02
2022-10-25T22:46:05.230Z,12.50
2022-10-25T22:48:33.749Z,13.68
2022-10-25T22:51:01.409Z,15.73
2022-10-25T22:53:29.054Z,17.00
2022-10-25T22:56:03.807Z,18.52
2022-10-25T22:58:34.842Z,17.50
2022-10-25T23:03:41.821Z,17.50
2022-10-25T23:06:14.909Z,17.30
2022-10-25T23:08:43.064Z,16.17
2022-10-25T23:11:19.117Z,14.27
2022-10-25T23:13:46.576Z,12.48
2022-10-25T23:16:15.355Z,12.10
2022-10-25T23:18:42.917Z,10.63
2022-10-25T23:21:22.044Z,12.23
2022-10-25T23:23:49.773Z,11.43
2022-10-25T23:26:20.287Z,11.73
2022-10-25T23:28:47.420Z,12.18
2022-10-25T23:31:14.905Z,13.70
2022-10-25T23:33:42.657Z,11.77
2022-10-25T23:36:15.719Z,10.52
2022-10-25T23:38:46.588Z,12.43
2022-10-25T23:41:13.826Z,11.77
2022-10-25T23:43:40.682Z,13.85
2022-10-25T23:46:08.653Z,13.63
2022-10-25T23:48:36.159Z,14.60
2022-10-25T23:51:06.312Z,12.77
2022-10-25T23:53:33.851Z,14.25
2022-10-25T23:56:01.232Z,14.02
2022-10-25T23:58:28.204Z,14.75
